Time;durP1;ratioP1;P1;durP2;ratioP2;P2;SDS_P1;SDS_P2;PMS_P1;PMS_P2;Temp;Humidity;BMP_temperature;BMP_pressure;BME280_temperature;BME280_humidity;BME280_pressure;Samples;Min_cycle;Max_cycle;Signal;HPM_P1;HPM_P2
2022/10/14 00:00:09;;;;;;;37.45;3.83;;;;;;;;;;4947665;28;20054;-68
2022/10/14 00:02:36;;;;;;;122.55;5.47;;;;;;;;;;4963077;28;20352;-69
2022/10/14 00:05:04;;;;;;;47.55;3.83;;;;;;;;;;4962006;28;20082;-69
2022/10/14 00:07:31;;;;;;;49.97;3.30;;;;;;;;;;4960708;28;20090;-69
2022/10/14 00:09:58;;;;;;;64.72;3.70;;;;;;;;;;4948050;28;20124;-69
2022/10/14 00:12:25;;;;;;;57.70;3.80;;;;;;;;;;4966951;28;20058;-69
2022/10/14 00:14:53;;;;;;;62.83;4.05;;;;;;;;;;4966562;28;20050;-68
2022/10/14 00:17:21;;;;;;;130.32;5.50;;;;;;;;;;4966962;28;20054;-69
2022/10/14 00:19:48;;;;;;;111.15;5.15;;;;;;;;;;4963577;28;20061;-69
2022/10/14 00:22:16;;;;;;;111.47;5.35;;;;;;;;;;4966498;28;20807;-69
2022/10/14 00:24:43;;;;;;;67.90;4.38;;;;;;;;;;4965957;28;20051;-69
2022/10/14 00:27:10;;;;;;;75.88;4.80;;;;;;;;;;4963225;28;20061;-69
2022/10/14 00:29:37;;;;;;;20.40;3.47;;;;;;;;;;4966504;28;20414;-69
2022/10/14 00:32:05;;;;;;;23.58;3.92;;;;;;;;;;4964625;28;20501;-69
2022/10/14 00:34:33;;;;;;;65.38;4.82;;;;;;;;;;4962971;28;20051;-69
2022/10/14 00:37:00;;;;;;;74.53;4.80;;;;;;;;;;4966348;28;20449;-69
2022/10/14 00:39:28;;;;;;;58.25;6.03;;;;;;;;;;4964572;28;20075;-68
2022/10/14 00:41:55;;;;;;;58.08;5.30;;;;;;;;;;4966484;28;20117;-69
2022/10/14 00:44:40;;;;;;;72.45;5.15;;;;;;;;;;4967107;28;20062;-69
2022/10/14 00:47:08;;;;;;;60.85;5.05;;;;;;;;;;4965690;28;20177;-69
2022/10/14 00:49:39;;;;;;;66.05;4.90;;;;;;;;;;4967004;28;20051;-68
2022/10/14 00:52:10;;;;;;;68.70;4.72;;;;;;;;;;4966979;28;20050;-69
2022/10/14 00:54:38;;;;;;;46.80;4.80;;;;;;;;;;4960931;28;20078;-68
2022/10/14 00:57:06;;;;;;;31.42;4.03;;;;;;;;;;4962934;28;20490;-68
2022/10/14 00:59:34;;;;;;;81.95;4.88;;;;;;;;;;4958756;28;20070;-69
2022/10/14 01:02:01;;;;;;;143.95;6.13;;;;;;;;;;4964127;28;20073;-68
2022/10/14 01:04:28;;;;;;;79.45;4.85;;;;;;;;;;4966063;28;20054;-68
2022/10/14 01:07:01;;;;;;;53.22;4.38;;;;;;;;;;4961705;28;20121;-68
2022/10/14 01:09:30;;;;;;;119.05;5.40;;;;;;;;;;4965763;28;20051;-68
2022/10/14 01:12:01;;;;;;;221.23;7.03;;;;;;;;;;4960855;28;20446;-68
2022/10/14 01:14:32;;;;;;;120.72;5.60;;;;;;;;;;4965776;28;20953;-68
2022/10/14 01:17:04;;;;;;;253.75;6.93;;;;;;;;;;4964756;28;20051;-68
2022/10/14 01:19:51;;;;;;;221.70;7.55;;;;;;;;;;4959384;28;20058;-69
2022/10/14 01:22:23;;;;;;;90.82;6.72;;;;;;;;;;4952582;28;20059;-68
2022/10/14 01:24:56;;;;;;;175.02;6.78;;;;;;;;;;4964392;28;20387;-68
2022/10/14 01:27:30;;;;;;;155.60;6.60;;;;;;;;;;4964938;28;20134;-68
2022/10/14 01:29:57;;;;;;;;;;;;;;;;;;4961757;28;20084;-69
2022/10/14 01:32:27;;;;;;;134.48;5.60;;;;;;;;;;4966760;28;20400;-68
2022/10/14 01:34:58;;;;;;;156.63;6.55;;;;;;;;;;4961710;28;20549;-68
2022/10/14 01:37:28;;;;;;;200.07;6.85;;;;;;;;;;4964470;28;20062;-68
2022/10/14 01:39:56;;;;;;;152.40;6.80;;;;;;;;;;4961873;28;20046;-68
2022/10/14 01:42:26;;;;;;;130.05;7.45;;;;;;;;;;4963924;28;20165;-68
2022/10/14 01:44:56;;;;;;;135.85;6.97;;;;;;;;;;4948258;28;20051;-68
2022/10/14 01:47:24;;;;;;;155.63;7.15;;;;;;;;;;4944921;28;20555;-68
2022/10/14 01:49:55;;;;;;;238.45;7.85;;;;;;;;;;4945350;28;20441;-68
2022/10/14 01:52:26;;;;;;;140.48;6.80;;;;;;;;;;4962372;28;20055;-69
2022/10/14 01:54:55;;;;;;;229.20;7.10;;;;;;;;;;4963479;28;20058;-69
2022/10/14 01:57:25;;;;;;;105.25;6.93;;;;;;;;;;4963227;28;20093;-68
2022/10/14 01:59:53;;;;;;;122.85;9.02;;;;;;;;;;4965757;28;20465;-68
2022/10/14 02:02:20;;;;;;;131.13;7.35;;;;;;;;;;4965769;28;20053;-69
2022/10/14 02:04:47;;;;;;;130.23;7.45;;;;;;;;;;4963772;28;20485;-68
2022/10/14 02:07:19;;;;;;;123.50;7.60;;;;;;;;;;4963992;28;20054;-68
2022/10/14 02:09:48;;;;;;;88.65;6.40;;;;;;;;;;4963395;28;20054;-68
2022/10/14 02:12:23;;;;;;;95.43;6.13;;;;;;;;;;4964873;28;20489;-68
2022/10/14 02:14:53;;;;;;;160.27;8.68;;;;;;;;;;4962348;28;20055;-68
2022/10/14 02:17:22;;;;;;;144.98;7.43;;;;;;;;;;4961777;28;20059;-68
2022/10/14 02:19:51;;;;;;;163.68;7.28;;;;;;;;;;4963811;28;20051;-68
2022/10/14 02:22:24;;;;;;;147.98;8.48;;;;;;;;;;4964591;28;20058;-68
2022/10/14 02:24:53;;;;;;;211.10;9.50;;;;;;;;;;4964461;28;20401;-68
2022/10/14 02:27:21;;;;;;;81.03;7.40;;;;;;;;;;4964819;28;20520;-68
2022/10/14 02:29:49;;;;;;;83.50;7.57;;;;;;;;;;4964335;28;20050;-68
2022/10/14 02:32:18;;;;;;;62.75;6.68;;;;;;;;;;4949525;28;20101;-68
2022/10/14 02:34:47;;;;;;;75.10;6.07;;;;;;;;;;4969045;28;20485;-68
2022/10/14 02:37:15;;;;;;;129.38;7.18;;;;;;;;;;4966195;28;20059;-69
2022/10/14 02:39:45;;;;;;;104.97;7.07;;;;;;;;;;4968960;28;20062;-68
2022/10/14 02:42:12;;;;;;;46.33;7.97;;;;;;;;;;4966518;28;20106;-68
2022/10/14 02:44:51;;;;;;;54.60;8.13;;;;;;;;;;4966264;28;20054;-68
2022/10/14 02:47:19;;;;;;;108.35;7.72;;;;;;;;;;4951846;28;20063;-68
2022/10/14 02:49:46;;;;;;;84.90;8.15;;;;;;;;;;4968965;28;20437;-68
2022/10/14 02:52:13;;;;;;;98.45;7.63;;;;;;;;;;4951776;28;20058;-68
2022/10/14 02:54:40;;;;;;;143.52;7.50;;;;;;;;;;4966546;28;20059;-68
2022/10/14 02:57:09;;;;;;;128.18;9.63;;;;;;;;;;4961962;28;20054;-68
2022/10/14 02:59:36;;;;;;;146.48;9.98;;;;;;;;;;4954301;28;20054;-68
2022/10/14 03:02:03;;;;;;;109.78;9.30;;;;;;;;;;4948075;28;20814;-68
2022/10/14 03:04:30;;;;;;;104.10;9.48;;;;;;;;;;4960786;28;20062;-68
2022/10/14 03:06:58;;;;;;;150.05;8.65;;;;;;;;;;4959006;28;20110;-68
2022/10/14 03:09:25;;;;;;;132.30;8.07;;;;;;;;;;4956835;28;20055;-68
2022/10/14 03:11:52;;;;;;;360.15;13.63;;;;;;;;;;4964704;28;20118;-68
2022/10/14 03:14:21;;;;;;;118.32;7.90;;;;;;;;;;4967880;28;20524;-68
2022/10/14 03:16:48;;;;;;;99.05;9.35;;;;;;;;;;4966196;28;20051;-68
2022/10/14 03:19:15;;;;;;;173.15;10.32;;;;;;;;;;4969213;28;20051;-68
2022/10/14 03:21:42;;;;;;;134.38;9.60;;;;;;;;;;4966162;28;20134;-69
2022/10/14 03:24:10;;;;;;;149.23;10.18;;;;;;;;;;4968727;28;20406;-68
2022/10/14 03:26:37;;;;;;;107.32;9.65;;;;;;;;;;4967444;28;20513;-69
2022/10/14 03:29:04;;;;;;;133.80;9.52;;;;;;;;;;4966135;28;20066;-68
2022/10/14 03:31:33;;;;;;;128.88;10.65;;;;;;;;;;4967336;28;20058;-69
2022/10/14 03:34:01;;;;;;;129.48;8.20;;;;;;;;;;4956830;28;20054;-67
2022/10/14 03:36:28;;;;;;;165.40;9.95;;;;;;;;;;4962204;28;20561;-68
2022/10/14 03:38:55;;;;;;;144.10;10.35;;;;;;;;;;4966120;28;20055;-68
2022/10/14 03:41:22;;;;;;;170.68;10.70;;;;;;;;;;4965497;28;20106;-68
2022/10/14 03:43:49;;;;;;;159.77;10.45;;;;;;;;;;4965870;28;20059;-69
2022/10/14 03:46:17;;;;;;;138.82;11.05;;;;;;;;;;4955248;28;20545;-68
2022/10/14 03:48:45;;;;;;;201.50;12.23;;;;;;;;;;4966436;28;20058;-68
2022/10/14 03:51:12;;;;;;;210.48;14.60;;;;;;;;;;4963341;28;20121;-68
2022/10/14 03:53:40;;;;;;;390.15;17.08;;;;;;;;;;4965560;28;20130;-68
2022/10/14 03:56:07;;;;;;;341.45;18.50;;;;;;;;;;4962488;28;20562;-68
2022/10/14 03:58:34;;;;;;;314.33;18.98;;;;;;;;;;4967506;28;20121;-69
2022/10/14 04:01:02;;;;;;;228.93;17.40;;;;;;;;;;4968404;28;20449;-68
2022/10/14 04:03:29;;;;;;;210.75;19.67;;;;;;;;;;4963419;28;20500;-68
2022/10/14 04:05:57;;;;;;;161.10;19.42;;;;;;;;;;4961020;28;20043;-68
2022/10/14 04:08:25;;;;;;;234.98;21.35;;;;;;;;;;4967443;28;20066;-68
2022/10/14 04:10:52;;;;;;;197.80;19.17;;;;;;;;;;4965716;28;20066;-68
2022/10/14 04:13:20;;;;;;;142.50;20.40;;;;;;;;;;4965808;28;20059;-68
2022/10/14 04:15:47;;;;;;;90.70;18.58;;;;;;;;;;4967659;28;20062;-69
2022/10/14 04:18:14;;;;;;;143.73;17.73;;;;;;;;;;4967266;28;20051;-69
2022/10/14 04:20:41;;;;;;;174.55;19.08;;;;;;;;;;4962878;28;20567;-69
2022/10/14 04:23:10;;;;;;;171.40;23.10;;;;;;;;;;4945261;28;20104;-69
2022/10/14 04:25:38;;;;;;;155.60;19.90;;;;;;;;;;4964788;28;20493;-69
2022/10/14 04:28:06;;;;;;;239.57;20.15;;;;;;;;;;4946958;28;20394;-69
2022/10/14 04:30:33;;;;;;;151.27;18.40;;;;;;;;;;4964399;28;20058;-69
2022/10/14 04:33:00;;;;;;;204.93;21.23;;;;;;;;;;4966775;28;20047;-69
2022/10/14 04:35:27;;;;;;;235.43;21.65;;;;;;;;;;4962240;28;20058;-68
2022/10/14 04:37:55;;;;;;;318.42;21.08;;;;;;;;;;4965817;28;20057;-69
2022/10/14 04:40:24;;;;;;;161.02;16.20;;;;;;;;;;4967903;28;20057;-69
2022/10/14 04:42:55;;;;;;;221.88;18.23;;;;;;;;;;4947172;28;20118;-69
2022/10/14 04:45:22;;;;;;;212.15;17.42;;;;;;;;;;4961307;28;20085;-69
2022/10/14 04:47:49;;;;;;;269.63;19.88;;;;;;;;;;4958762;28;20051;-69
2022/10/14 04:50:17;;;;;;;332.38;21.23;;;;;;;;;;4967112;28;20071;-68
2022/10/14 04:52:44;;;;;;;265.77;17.85;;;;;;;;;;4961699;28;20055;-68
2022/10/14 04:55:11;;;;;;;374.65;22.65;;;;;;;;;;4948677;28;20054;-69
2022/10/14 04:57:42;;;;;;;418.80;23.63;;;;;;;;;;4966901;28;20063;-69
2022/10/14 05:00:11;;;;;;;361.10;20.02;;;;;;;;;;4966040;28;20055;-69
2022/10/14 05:02:38;;;;;;;446.20;21.13;;;;;;;;;;4961832;28;20086;-69
2022/10/14 05:05:05;;;;;;;114.00;15.25;;;;;;;;;;4965039;28;20042;-68
2022/10/14 05:07:33;;;;;;;441.63;22.17;;;;;;;;;;4963296;28;20054;-69
2022/10/14 05:10:00;;;;;;;274.20;19.85;;;;;;;;;;4962728;28;20073;-69
2022/10/14 05:12:28;;;;;;;305.33;22.80;;;;;;;;;;4964916;28;20066;-69
2022/10/14 05:14:57;;;;;;;353.05;22.83;;;;;;;;;;4966613;28;20051;-68
2022/10/14 05:17:24;;;;;;;299.92;22.30;;;;;;;;;;4965308;28;20564;-69
2022/10/14 05:19:51;;;;;;;216.13;19.90;;;;;;;;;;4966751;28;20050;-69
2022/10/14 05:22:18;;;;;;;257.38;21.20;;;;;;;;;;4948307;28;20062;-69
2022/10/14 05:24:46;;;;;;;259.10;22.17;;;;;;;;;;4966462;28;20208;-69
2022/10/14 05:27:13;;;;;;;215.85;17.83;;;;;;;;;;4965392;28;20478;-69
2022/10/14 05:29:40;;;;;;;258.92;16.58;;;;;;;;;;4960729;28;20038;-68
2022/10/14 05:32:09;;;;;;;269.98;14.65;;;;;;;;;;4948965;28;20486;-68
2022/10/14 05:34:36;;;;;;;181.05;13.57;;;;;;;;;;4957674;28;20055;-68
2022/10/14 05:37:04;;;;;;;207.80;12.20;;;;;;;;;;4964969;28;20093;-68
2022/10/14 05:39:31;;;;;;;218.63;14.40;;;;;;;;;;4965022;28;20062;-69
2022/10/14 05:41:58;;;;;;;130.65;14.10;;;;;;;;;;4963342;28;20054;-69
2022/10/14 05:44:25;;;;;;;204.40;14.98;;;;;;;;;;4964463;28;20168;-68
2022/10/14 05:46:52;;;;;;;175.43;14.52;;;;;;;;;;4960583;28;20514;-68
2022/10/14 05:49:21;;;;;;;213.73;16.67;;;;;;;;;;4962945;28;20058;-69
2022/10/14 05:51:48;;;;;;;285.70;17.02;;;;;;;;;;4964717;28;20130;-68
2022/10/14 05:54:16;;;;;;;155.93;16.63;;;;;;;;;;4945630;28;20055;-68
2022/10/14 05:56:43;;;;;;;243.23;18.25;;;;;;;;;;4965113;28;20053;-68
2022/10/14 05:59:10;;;;;;;181.80;15.63;;;;;;;;;;4962526;28;20057;-68
2022/10/14 06:01:37;;;;;;;186.98;18.10;;;;;;;;;;4963502;28;20058;-68
2022/10/14 06:04:05;;;;;;;203.05;16.45;;;;;;;;;;4964239;28;20470;-69
2022/10/14 06:06:33;;;;;;;157.85;15.90;;;;;;;;;;4964847;28;20039;-69
2022/10/14 06:09:01;;;;;;;219.13;16.70;;;;;;;;;;4967500;28;20577;-68
2022/10/14 06:11:28;;;;;;;181.32;16.40;;;;;;;;;;4969879;28;20623;-69
2022/10/14 06:13:55;;;;;;;206.88;17.10;;;;;;;;;;4966872;28;20059;-69
2022/10/14 06:16:22;;;;;;;170.45;16.58;;;;;;;;;;4970059;28;20508;-69
2022/10/14 06:18:49;;;;;;;110.88;15.98;;;;;;;;;;4966828;28;20105;-68
2022/10/14 06:21:17;;;;;;;156.80;17.75;;;;;;;;;;4968402;28;20046;-68
2022/10/14 06:23:45;;;;;;;138.25;17.38;;;;;;;;;;4968988;28;20050;-69
2022/10/14 06:26:13;;;;;;;285.30;20.70;;;;;;;;;;4968049;28;20639;-68
2022/10/14 06:28:40;;;;;;;122.00;18.17;;;;;;;;;;4969199;28;20050;-68
2022/10/14 06:31:07;;;;;;;93.93;17.45;;;;;;;;;;4968023;28;20413;-68
2022/10/14 06:33:34;;;;;;;128.43;19.30;;;;;;;;;;4970059;28;20054;-69
2022/10/14 06:36:02;;;;;;;115.75;20.00;;;;;;;;;;4968987;28;20054;-68
2022/10/14 06:38:29;;;;;;;115.65;20.63;;;;;;;;;;4968504;28;20055;-68
2022/10/14 06:40:58;;;;;;;136.20;22.13;;;;;;;;;;4967213;28;20050;-69
2022/10/14 06:43:25;;;;;;;130.65;23.98;;;;;;;;;;4969009;28;20406;-69
2022/10/14 06:45:53;;;;;;;129.23;22.60;;;;;;;;;;4969377;28;20043;-69
2022/10/14 06:48:21;;;;;;;205.80;26.05;;;;;;;;;;4969490;28;20062;-68
2022/10/14 06:50:48;;;;;;;265.60;30.55;;;;;;;;;;4966876;28;20050;-68
2022/10/14 06:53:15;;;;;;;135.63;29.40;;;;;;;;;;4968191;28;20051;-68
2022/10/14 06:55:42;;;;;;;276.10;34.20;;;;;;;;;;4967267;28;20046;-68
2022/10/14 06:58:11;;;;;;;264.17;36.75;;;;;;;;;;4949884;28;20054;-69
2022/10/14 07:00:38;;;;;;;161.52;30.98;;;;;;;;;;4968364;28;20518;-69
2022/10/14 07:03:05;;;;;;;197.35;31.85;;;;;;;;;;4969491;28;20058;-68
2022/10/14 07:05:33;;;;;;;188.55;31.35;;;;;;;;;;4968351;28;20058;-69
2022/10/14 07:08:00;;;;;;;241.40;32.45;;;;;;;;;;4965099;28;20051;-68
2022/10/14 07:10:27;;;;;;;157.50;29.75;;;;;;;;;;4968684;28;20848;-69
2022/10/14 07:12:55;;;;;;;119.47;29.05;;;;;;;;;;4967298;28;20051;-69
2022/10/14 07:15:24;;;;;;;272.98;33.13;;;;;;;;;;4968126;28;20121;-68
2022/10/14 07:17:51;;;;;;;131.23;28.52;;;;;;;;;;4968116;28;20050;-68
2022/10/14 07:20:18;;;;;;;237.20;33.30;;;;;;;;;;4965381;28;20063;-69
2022/10/14 07:22:45;;;;;;;122.43;30.05;;;;;;;;;;4951367;28;20054;-69
2022/10/14 07:25:13;;;;;;;145.30;31.98;;;;;;;;;;4967930;28;20051;-69
2022/10/14 07:27:40;;;;;;;134.93;29.48;;;;;;;;;;4964103;28;20057;-68
2022/10/14 07:30:08;;;;;;;168.38;30.75;;;;;;;;;;4964923;28;20047;-68
2022/10/14 07:32:37;;;;;;;178.15;30.92;;;;;;;;;;4967680;28;20054;-69
2022/10/14 07:35:05;;;;;;;186.85;31.95;;;;;;;;;;4965895;28;20061;-68
2022/10/14 07:37:32;;;;;;;127.50;29.25;;;;;;;;;;4965570;28;20051;-69
2022/10/14 07:39:59;;;;;;;107.90;28.73;;;;;;;;;;4967185;28;20057;-68
2022/10/14 07:42:26;;;;;;;105.80;29.27;;;;;;;;;;4965704;28;20051;-69
2022/10/14 07:44:54;;;;;;;169.60;33.00;;;;;;;;;;4965625;28;20055;-69
2022/10/14 07:47:21;;;;;;;83.50;27.17;;;;;;;;;;4967035;28;20135;-68
2022/10/14 07:49:50;;;;;;;103.85;30.10;;;;;;;;;;4963399;28;20055;-68
2022/10/14 07:52:18;;;;;;;104.53;29.25;;;;;;;;;;4967224;28;20051;-69
2022/10/14 07:54:46;;;;;;;100.28;28.30;;;;;;;;;;4967182;28;20494;-69
2022/10/14 07:57:13;;;;;;;119.93;29.73;;;;;;;;;;4967855;28;20130;-69
2022/10/14 07:59:40;;;;;;;100.25;29.42;;;;;;;;;;4967881;28;20055;-69
2022/10/14 08:02:07;;;;;;;100.13;28.50;;;;;;;;;;4967664;28;20055;-69
2022/10/14 08:04:35;;;;;;;94.60;29.15;;;;;;;;;;4968302;28;20084;-69
2022/10/14 08:07:03;;;;;;;94.63;29.00;;;;;;;;;;4963524;28;20049;-69
2022/10/14 08:09:31;;;;;;;124.82;31.40;;;;;;;;;;4967959;28;20086;-69
2022/10/14 08:11:58;;;;;;;80.88;26.85;;;;;;;;;;4965920;28;20054;-68
2022/10/14 08:14:25;;;;;;;99.18;28.13;;;;;;;;;;4965761;28;20105;-69
2022/10/14 08:16:52;;;;;;;82.07;25.65;;;;;;;;;;4967257;28;20051;-69
2022/10/14 08:19:20;;;;;;;100.18;29.15;;;;;;;;;;4967422;28;20054;-69
2022/10/14 08:21:47;;;;;;;66.88;25.60;;;;;;;;;;4959638;28;20085;-69
2022/10/14 08:24:16;;;;;;;67.35;25.90;;;;;;;;;;4964037;28;20058;-69
2022/10/14 08:26:49;;;;;;;70.85;25.10;;;;;;;;;;4966318;28;20043;-69
2022/10/14 08:29:17;;;;;;;63.80;25.13;;;;;;;;;;4967363;28;20528;-69
2022/10/14 08:31:44;;;;;;;55.47;22.75;;;;;;;;;;4963554;28;20058;-69
2022/10/14 08:34:12;;;;;;;84.93;26.85;;;;;;;;;;4955840;28;20102;-70
2022/10/14 08:36:39;;;;;;;60.95;23.80;;;;;;;;;;4966231;28;20490;-69
2022/10/14 08:39:07;;;;;;;50.50;22.58;;;;;;;;;;4964626;28;20513;-69
2022/10/14 08:41:42;;;;;;;52.88;22.77;;;;;;;;;;4965615;28;20439;-69
2022/10/14 08:44:13;;;;;;;48.35;21.13;;;;;;;;;;4961476;28;20399;-70
2022/10/14 08:46:43;;;;;;;63.38;23.50;;;;;;;;;;4965302;28;20062;-69
2022/10/14 08:49:14;;;;;;;52.88;22.90;;;;;;;;;;4961304;28;20142;-69
2022/10/14 08:51:44;;;;;;;77.22;25.98;;;;;;;;;;4965246;28;20073;-69
2022/10/14 08:54:15;;;;;;;55.05;23.13;;;;;;;;;;4967462;28;20493;-69
2022/10/14 08:56:44;;;;;;;65.97;24.05;;;;;;;;;;4962287;28;20571;-69
2022/10/14 08:59:13;;;;;;;58.55;24.40;;;;;;;;;;4952705;28;20054;-69
2022/10/14 09:01:45;;;;;;;56.67;23.55;;;;;;;;;;4966332;28;20073;-70
2022/10/14 09:04:14;;;;;;;72.07;25.35;;;;;;;;;;4967309;28;20053;-69
2022/10/14 09:06:43;;;;;;;61.85;24.75;;;;;;;;;;4963562;28;20043;-70
2022/10/14 09:09:14;;;;;;;52.13;23.83;;;;;;;;;;4966894;28;20043;-69
2022/10/14 09:11:45;;;;;;;58.35;24.23;;;;;;;;;;4963026;28;20406;-70
2022/10/14 09:14:16;;;;;;;53.70;23.13;;;;;;;;;;4966623;28;20050;-69
2022/10/14 09:16:45;;;;;;;62.17;23.75;;;;;;;;;;4964041;28;20416;-69
2022/10/14 09:19:15;;;;;;;48.67;22.38;;;;;;;;;;4962846;28;20047;-69
2022/10/14 09:21:46;;;;;;;72.80;25.15;;;;;;;;;;4964938;28;20046;-70
2022/10/14 09:24:15;;;;;;;65.75;24.70;;;;;;;;;;4965230;28;20101;-70
2022/10/14 09:26:44;;;;;;;78.50;24.45;;;;;;;;;;4964998;28;20050;-70
2022/10/14 09:29:18;;;;;;;54.58;23.48;;;;;;;;;;4964040;28;20556;-69
2022/10/14 09:31:46;;;;;;;62.10;23.88;;;;;;;;;;4965639;28;20054;-69
2022/10/14 09:34:15;;;;;;;55.08;22.13;;;;;;;;;;4963172;28;20043;-70
2022/10/14 09:36:42;;;;;;;72.47;25.10;;;;;;;;;;4964223;28;20053;-69
2022/10/14 09:39:11;;;;;;;70.18;24.05;;;;;;;;;;4966294;28;20798;-70
2022/10/14 09:41:39;;;;;;;59.70;23.25;;;;;;;;;;4963575;28;20069;-69
2022/10/14 09:44:24;;;;;;;60.22;23.50;;;;;;;;;;4965191;28;20047;-69
2022/10/14 09:46:53;;;;;;;55.10;23.75;;;;;;;;;;4961850;28;20568;-69
2022/10/14 09:49:22;;;;;;;63.47;23.65;;;;;;;;;;4965670;28;20049;-70
2022/10/14 09:51:50;;;;;;;47.72;20.80;;;;;;;;;;4949054;28;20117;-70
2022/10/14 09:54:25;;;;;;;49.45;21.52;;;;;;;;;;4966394;28;20049;-70
2022/10/14 09:56:59;;;;;;;54.25;21.95;;;;;;;;;;4962968;28;20049;-70
2022/10/14 09:59:28;;;;;;;43.92;19.90;;;;;;;;;;4964924;28;20051;-69
2022/10/14 10:01:56;;;;;;;43.35;19.20;;;;;;;;;;4960379;28;20091;-70
2022/10/14 10:04:26;;;;;;;54.10;21.42;;;;;;;;;;4965498;28;20057;-70
2022/10/14 10:06:54;;;;;;;53.35;19.77;;;;;;;;;;4959216;28;20039;-69
2022/10/14 10:09:21;;;;;;;57.17;21.58;;;;;;;;;;4963680;28;20062;-69
2022/10/14 10:11:49;;;;;;;54.72;20.83;;;;;;;;;;4958904;28;21125;-70
2022/10/14 10:14:17;;;;;;;42.55;19.17;;;;;;;;;;4966416;28;20058;-70
2022/10/14 10:16:46;;;;;;;51.35;20.00;;;;;;;;;;4965335;28;20046;-69
2022/10/14 10:19:27;;;;;;;53.10;19.13;;;;;;;;;;4965664;28;21012;-69
2022/10/14 10:21:55;;;;;;;45.25;17.98;;;;;;;;;;4964426;28;20047;-69
2022/10/14 10:24:23;;;;;;;52.08;19.10;;;;;;;;;;4964840;28;20054;-70
2022/10/14 10:26:51;;;;;;;48.88;17.77;;;;;;;;;;4962112;28;20043;-69
2022/10/14 10:29:29;;;;;;;55.05;19.65;;;;;;;;;;4967980;28;20347;-69
2022/10/14 10:32:11;;;;;;;72.70;21.10;;;;;;;;;;4964866;28;20055;-70
2022/10/14 10:34:55;;;;;;;48.35;17.10;;;;;;;;;;4963823;28;20830;-70
2022/10/14 10:37:27;;;;;;;60.30;19.42;;;;;;;;;;4964549;28;20054;-69
2022/10/14 10:40:09;;;;;;;52.83;19.40;;;;;;;;;;4965572;28;20062;-69
2022/10/14 10:42:43;;;;;;;54.15;18.50;;;;;;;;;;4964241;28;20055;-69
2022/10/14 10:45:10;;;;;;;;;;;;;;;;;;4966338;28;20055;-69
2022/10/14 10:47:44;;;;;;;58.28;17.65;;;;;;;;;;4964535;28;19933;-70
2022/10/14 10:50:25;;;;;;;45.67;15.68;;;;;;;;;;4945728;28;20053;-70
2022/10/14 10:53:00;;;;;;;54.42;16.90;;;;;;;;;;4964356;28;20058;-70
2022/10/14 10:55:30;;;;;;;38.15;15.55;;;;;;;;;;4965582;28;20055;-69
2022/10/14 10:58:03;;;;;;;47.35;15.70;;;;;;;;;;4968614;28;20418;-70
2022/10/14 11:00:32;;;;;;;48.70;15.13;;;;;;;;;;4965325;28;20055;-69
2022/10/14 11:03:04;;;;;;;57.65;15.18;;;;;;;;;;4964554;28;20047;-69
2022/10/14 11:05:48;;;;;;;41.60;14.10;;;;;;;;;;4966262;28;20362;-70
2022/10/14 11:14:07;;;;;;;34.80;12.63;;;;;;;;;;4961412;28;20066;-69
2022/10/14 11:16:36;;;;;;;24.48;10.70;;;;;;;;;;4950080;28;20077;-69
2022/10/14 11:19:09;;;;;;;26.98;11.20;;;;;;;;;;4967822;28;20062;-69
2022/10/14 11:21:40;;;;;;;25.67;10.45;;;;;;;;;;4966745;28;20078;-69
2022/10/14 11:24:10;;;;;;;37.45;11.85;;;;;;;;;;4964059;28;20146;-69
2022/10/14 11:26:54;;;;;;;26.35;10.43;;;;;;;;;;4967835;28;20050;-70
2022/10/14 11:29:34;;;;;;;22.33;9.48;;;;;;;;;;4965223;28;20089;-69
2022/10/14 11:32:04;;;;;;;25.05;10.05;;;;;;;;;;4962195;28;20054;-70
2022/10/14 11:34:40;;;;;;;32.33;11.10;;;;;;;;;;4964680;28;20043;-69
2022/10/14 11:37:09;;;;;;;15.63;7.93;;;;;;;;;;4966174;28;20039;-70
2022/10/14 11:39:42;;;;;;;23.55;9.18;;;;;;;;;;4950121;28;20055;-70
2022/10/14 11:42:16;;;;;;;16.95;7.70;;;;;;;;;;4967253;28;20050;-69
2022/10/14 11:44:44;;;;;;;18.42;8.23;;;;;;;;;;4967853;28;20528;-69
2022/10/14 11:47:13;;;;;;;19.77;8.73;;;;;;;;;;4966052;28;20053;-70
2022/10/14 11:49:45;;;;;;;21.08;8.75;;;;;;;;;;4963249;28;20524;-69
2022/10/14 11:52:14;;;;;;;17.83;7.90;;;;;;;;;;4965783;28;20177;-70
2022/10/14 11:54:44;;;;;;;16.00;7.63;;;;;;;;;;4966162;28;20093;-69
2022/10/14 11:57:14;;;;;;;24.20;8.57;;;;;;;;;;4966200;28;20069;-69
2022/10/14 11:59:44;;;;;;;16.52;7.82;;;;;;;;;;4964275;28;20486;-69
2022/10/14 12:02:15;;;;;;;16.85;8.27;;;;;;;;;;4965628;28;20050;-69
2022/10/14 12:04:46;;;;;;;16.98;7.95;;;;;;;;;;4966934;28;20404;-69
2022/10/14 12:07:16;;;;;;;22.40;8.15;;;;;;;;;;4964907;28;20512;-69
2022/10/14 12:09:45;;;;;;;17.23;7.22;;;;;;;;;;4964543;28;20058;-70
2022/10/14 12:12:14;;;;;;;17.30;8.05;;;;;;;;;;4968042;28;20061;-69
2022/10/14 12:14:44;;;;;;;25.95;8.75;;;;;;;;;;4966265;28;20077;-69
2022/10/14 12:17:17;;;;;;;18.10;8.48;;;;;;;;;;4967861;28;20517;-69
2022/10/14 12:19:46;;;;;;;15.75;7.05;;;;;;;;;;4967357;28;20047;-70
2022/10/14 12:22:16;;;;;;;21.08;8.40;;;;;;;;;;4950470;28;20054;-69
2022/10/14 12:24:45;;;;;;;16.52;7.78;;;;;;;;;;4963676;28;20054;-69
2022/10/14 12:27:14;;;;;;;17.02;8.00;;;;;;;;;;4967676;28;20124;-70
2022/10/14 12:29:43;;;;;;;34.17;10.70;;;;;;;;;;4966128;28;20069;-70
2022/10/14 12:32:19;;;;;;;18.75;8.27;;;;;;;;;;4968142;28;20050;-69
2022/10/14 12:34:48;;;;;;;25.13;9.18;;;;;;;;;;4966339;28;20059;-69
2022/10/14 12:37:41;;;;;;;17.40;8.30;;;;;;;;;;4967587;28;20121;-69
2022/10/14 12:40:28;;;;;;;16.90;7.73;;;;;;;;;;4962073;28;20051;-69
2022/10/14 12:42:57;;;;;;;26.67;9.43;;;;;;;;;;4962764;28;20352;-70
2022/10/14 12:45:26;;;;;;;19.88;8.05;;;;;;;;;;4966524;28;20051;-69
2022/10/14 12:48:02;;;;;;;19.67;8.75;;;;;;;;;;4963468;28;20089;-70
2022/10/14 12:50:32;;;;;;;28.55;9.82;;;;;;;;;;4962523;28;20055;-69
2022/10/14 12:53:00;;;;;;;25.27;8.82;;;;;;;;;;4966254;28;20093;-70
2022/10/14 12:55:29;;;;;;;17.92;7.93;;;;;;;;;;4963165;28;20058;-70
2022/10/14 12:57:58;;;;;;;23.17;8.73;;;;;;;;;;4965562;28;20051;-70
2022/10/14 13:00:29;;;;;;;31.00;9.88;;;;;;;;;;4962651;28;20066;-69
2022/10/14 13:02:59;;;;;;;18.60;8.10;;;;;;;;;;4965575;28;20102;-69
2022/10/14 13:05:30;;;;;;;16.17;7.85;;;;;;;;;;4949767;28;20145;-69
2022/10/14 13:08:13;;;;;;;19.40;8.05;;;;;;;;;;4964770;28;20050;-69
2022/10/14 13:10:44;;;;;;;21.75;9.55;;;;;;;;;;4965594;28;20124;-69
2022/10/14 13:13:30;;;;;;;22.17;8.38;;;;;;;;;;4965934;28;20066;-70
2022/10/14 13:15:58;;;;;;;20.20;8.98;;;;;;;;;;4960324;28;20804;-69
2022/10/14 13:18:44;;;;;;;15.15;8.20;;;;;;;;;;4949057;28;20058;-69
2022/10/14 13:21:21;;;;;;;21.17;8.63;;;;;;;;;;4967437;28;20085;-70
2022/10/14 13:23:50;;;;;;;16.27;7.93;;;;;;;;;;4964187;28;20054;-69
2022/10/14 13:26:22;;;;;;;14.90;7.57;;;;;;;;;;4943404;28;20616;-69
2022/10/14 13:28:55;;;;;;;26.85;9.10;;;;;;;;;;4964495;28;20050;-69
2022/10/14 13:31:25;;;;;;;21.30;8.40;;;;;;;;;;4960116;28;20058;-69
2022/10/14 13:33:56;;;;;;;18.27;7.47;;;;;;;;;;4965897;28;20051;-69
2022/10/14 13:36:29;;;;;;;15.50;7.13;;;;;;;;;;4962114;28;20051;-69
2022/10/14 13:38:59;;;;;;;12.75;6.45;;;;;;;;;;4962370;28;20054;-69
2022/10/14 13:41:27;;;;;;;14.57;6.13;;;;;;;;;;4960779;28;20490;-69
2022/10/14 13:43:55;;;;;;;12.98;5.28;;;;;;;;;;4943074;28;20051;-69
2022/10/14 13:46:26;;;;;;;10.23;5.65;;;;;;;;;;4966378;28;20648;-69
2022/10/14 13:48:56;;;;;;;9.73;5.25;;;;;;;;;;4947853;28;20050;-69
2022/10/14 13:51:28;;;;;;;16.10;5.90;;;;;;;;;;4962422;28;20058;-69
2022/10/14 13:53:56;;;;;;;9.10;5.15;;;;;;;;;;4966099;28;20139;-70
2022/10/14 13:56:25;;;;;;;10.23;5.60;;;;;;;;;;4965601;28;20059;-69
2022/10/14 13:58:52;;;;;;;9.60;5.00;;;;;;;;;;4960848;28;20511;-69
2022/10/14 14:01:21;;;;;;;11.70;5.88;;;;;;;;;;4966112;28;20055;-69
2022/10/14 14:03:51;;;;;;;10.95;5.78;;;;;;;;;;4963240;28;20466;-69
2022/10/14 14:06:20;;;;;;;12.77;5.95;;;;;;;;;;4963124;28;20421;-69
2022/10/14 14:08:48;;;;;;;17.15;6.50;;;;;;;;;;4965275;28;20094;-69
2022/10/14 14:11:19;;;;;;;19.35;7.57;;;;;;;;;;4966041;28;20039;-69
2022/10/14 14:13:53;;;;;;;13.68;7.22;;;;;;;;;;4965650;28;20055;-69
2022/10/14 14:16:22;;;;;;;9.98;5.97;;;;;;;;;;4962539;28;20059;-69
2022/10/14 14:18:51;;;;;;;10.73;6.68;;;;;;;;;;4964887;28;20513;-69
2022/10/14 14:21:20;;;;;;;17.02;7.70;;;;;;;;;;4966036;28;20469;-69
2022/10/14 14:23:51;;;;;;;13.07;6.70;;;;;;;;;;4965157;28;20057;-69
2022/10/14 14:26:18;;;;;;;12.93;7.00;;;;;;;;;;4962866;28;20070;-69
2022/10/14 14:28:47;;;;;;;15.43;7.70;;;;;;;;;;4968935;28;20042;-69
2022/10/14 14:31:17;;;;;;;17.77;8.38;;;;;;;;;;4963184;28;20050;-70
2022/10/14 14:33:45;;;;;;;18.67;8.73;;;;;;;;;;4960549;28;20079;-69
2022/10/14 14:36:16;;;;;;;14.68;8.10;;;;;;;;;;4955151;28;20046;-69